Time;durP1;ratioP1;P1;durP2;ratioP2;P2;SDS_P1;SDS_P2;PMS_P1;PMS_P2;Temp;Humidity;BMP_temperature;BMP_pressure;BME280_temperature;BME280_humidity;BME280_pressure;Samples;Min_cycle;Max_cycle;Signal;HPM_P1;HPM_P2
2022/01/11 00:00:49;;;;;;;36.65;19.33;;;1.10;99.90;;;;;;5057589;28;20496;-81
2022/01/11 00:03:17;;;;;;;31.58;18.83;;;1.10;99.90;;;;;;5057436;28;20021;-81
2022/01/11 00:05:54;;;;;;;35.05;18.38;;;1.10;99.90;;;;;;5057662;28;20029;-81
2022/01/11 00:08:29;;;;;;;32.88;17.48;;;1.10;99.90;;;;;;5058123;28;20025;-81
2022/01/11 00:11:02;;;;;;;38.80;18.27;;;1.20;99.90;;;;;;5058549;28;20044;-81
2022/01/11 00:13:28;;;;;;;31.63;18.38;;;1.20;99.90;;;;;;5058861;28;20029;-81
2022/01/11 00:15:54;;;;;;;32.88;17.77;;;1.10;99.90;;;;;;5056691;28;20116;-80
2022/01/11 00:18:19;;;;;;;36.08;17.80;;;1.00;99.90;;;;;;5058509;28;20031;-81
2022/01/11 00:20:45;;;;;;;32.10;17.88;;;1.20;99.90;;;;;;5058305;28;20024;-80
2022/01/11 00:25:39;;;;;;;35.30;18.33;;;1.00;99.90;;;;;;5057888;28;20029;-81
2022/01/11 00:28:06;;;;;;;31.17;17.60;;;1.00;99.90;;;;;;5057351;28;20029;-81
2022/01/11 00:30:35;;;;;;;33.42;17.27;;;1.20;99.90;;;;;;5057049;28;20021;-80
2022/01/11 00:33:05;;;;;;;36.80;17.45;;;1.00;99.90;;;;;;5056206;28;20029;-81
2022/01/11 00:35:44;;;;;;;32.45;18.13;;;1.20;99.90;;;;;;5058254;28;20017;-80
2022/01/11 00:38:16;;;;;;;29.85;16.88;;;1.00;99.90;;;;;;5056544;28;20033;-80
2022/01/11 00:40:49;;;;;;;31.85;17.85;;;1.20;99.90;;;;;;5057689;28;20104;-81
2022/01/11 00:43:17;;;;;;;33.13;17.38;;;1.20;99.90;;;;;;5056787;28;20037;-81
2022/01/11 00:45:43;;;;;;;30.02;16.63;;;1.10;99.90;;;;;;5055313;28;20029;-81
2022/01/11 00:48:09;;;;;;;31.95;16.65;;;1.20;99.90;;;;;;5056654;28;20087;-81
2022/01/11 00:50:36;;;;;;;30.67;15.60;;;1.20;99.90;;;;;;5056368;28;20056;-80
2022/01/11 00:53:05;;;;;;;30.13;16.17;;;1.20;99.90;;;;;;5056566;28;20549;-80
2022/01/11 00:55:31;;;;;;;26.55;14.13;;;1.20;99.90;;;;;;5056211;28;20033;-80
2022/01/11 00:57:57;;;;;;;35.13;16.60;;;1.30;99.90;;;;;;5056429;28;20033;-80
2022/01/11 01:00:23;;;;;;;32.00;15.85;;;1.10;99.90;;;;;;5056324;28;20021;-80
2022/01/11 01:02:48;;;;;;;33.13;16.27;;;1.00;99.90;;;;;;5056219;28;20033;-81
2022/01/11 01:05:17;;;;;;;29.02;16.10;;;1.20;99.90;;;;;;5056007;28;20048;-81
2022/01/11 01:07:44;;;;;;;31.98;15.70;;;1.20;99.90;;;;;;5056109;28;20017;-81
2022/01/11 01:12:58;;;;;;;33.97;16.27;;;1.30;99.90;;;;;;5057102;28;20060;-81
2022/01/11 01:15:25;;;;;;;37.10;15.77;;;1.30;99.90;;;;;;5056529;28;20052;-80
2022/01/11 01:17:53;;;;;;;32.80;16.02;;;1.20;99.90;;;;;;5056046;28;20484;-80
2022/01/11 01:20:20;;;;;;;32.88;17.02;;;1.20;99.90;;;;;;5055990;28;20504;-80
2022/01/11 01:22:50;;;;;;;29.60;15.23;;;1.40;99.90;;;;;;5055887;28;20029;-81
2022/01/11 01:25:16;;;;;;;34.38;16.45;;;1.20;99.90;;;;;;5055676;28;20040;-81
2022/01/11 01:31:04;;;;;;;29.98;14.15;;;1.40;99.90;;;;;;5055250;28;20035;-81
2022/01/11 01:33:33;;;;;;;33.25;14.88;;;1.20;99.90;;;;;;5055795;28;20104;-81
2022/01/11 01:36:02;;;;;;;35.40;16.85;;;1.30;99.90;;;;;;5055704;28;20029;-81
2022/01/11 01:38:30;;;;;;;29.92;15.13;;;1.20;99.90;;;;;;5056209;28;20059;-80
2022/01/11 01:41:02;;;;;;;33.20;15.77;;;1.20;99.90;;;;;;5054177;28;20020;-81
2022/01/11 01:43:28;;;;;;;33.13;15.88;;;1.30;99.90;;;;;;5055520;28;20021;-81
2022/01/11 01:45:55;;;;;;;32.58;14.93;;;1.40;99.90;;;;;;5054916;28;20036;-81
2022/01/11 01:48:21;;;;;;;34.28;15.05;;;1.20;99.90;;;;;;5055017;28;20354;-81
2022/01/11 01:50:48;;;;;;;31.13;14.80;;;1.40;99.90;;;;;;5053581;28;20021;-80
2022/01/11 01:53:16;;;;;;;31.35;15.90;;;1.20;99.90;;;;;;5055208;28;20021;-81
2022/01/11 01:55:43;;;;;;;37.05;16.05;;;1.30;99.90;;;;;;5055184;28;20025;-80
2022/01/11 01:58:10;;;;;;;33.17;14.82;;;1.20;99.90;;;;;;5054811;28;20060;-81
2022/01/11 02:00:41;;;;;;;30.30;15.30;;;1.30;99.90;;;;;;5055140;28;20108;-80
2022/01/11 02:03:13;;;;;;;37.83;14.98;;;1.20;99.90;;;;;;5055097;28;20113;-80
2022/01/11 02:05:42;;;;;;;32.80;13.98;;;1.10;99.90;;;;;;5054566;28;20424;-81
2022/01/11 02:08:09;;;;;;;31.77;14.80;;;1.10;99.90;;;;;;5054828;28;20017;-80
2022/01/11 02:10:37;;;;;;;33.20;14.23;;;1.30;99.90;;;;;;5055342;28;20063;-80
2022/01/11 02:13:03;;;;;;;33.67;14.98;;;1.10;99.90;;;;;;5055113;28;20025;-81
2022/01/11 02:15:29;;;;;;;29.45;14.20;;;1.30;99.90;;;;;;5055498;28;20112;-81
2022/01/11 02:18:05;;;;;;;33.47;15.07;;;1.20;99.90;;;;;;5054811;28;20071;-80
2022/01/11 02:20:30;;;;;;;32.42;14.13;;;1.10;99.90;;;;;;5054791;28;20025;-81
2022/01/11 02:22:56;;;;;;;26.70;13.00;;;1.10;99.90;;;;;;5053293;28;20032;-81
2022/01/11 02:25:21;;;;;;;29.60;14.00;;;1.20;99.90;;;;;;5054425;28;20025;-80
2022/01/11 02:27:47;;;;;;;29.17;13.38;;;1.30;99.90;;;;;;5054488;28;20021;-81
2022/01/11 02:30:12;;;;;;;30.77;14.35;;;1.30;99.90;;;;;;5054340;28;20385;-81
2022/01/11 02:32:48;;;;;;;29.50;13.90;;;1.30;99.90;;;;;;5054312;28;20381;-81
2022/01/11 02:35:14;;;;;;;29.05;14.20;;;1.30;99.90;;;;;;5054506;28;20031;-81
2022/01/11 02:38:05;;;;;;;30.13;14.40;;;1.10;99.90;;;;;;5054404;28;20024;-81
2022/01/11 02:40:31;;;;;;;29.42;12.70;;;1.20;99.90;;;;;;5054569;28;20025;-81
2022/01/11 02:43:40;;;;;;;33.05;13.30;;;1.30;99.90;;;;;;5054213;28;20051;-80
2022/01/11 02:46:06;;;;;;;29.88;13.00;;;1.20;99.90;;;;;;5033936;28;20026;-81
2022/01/11 02:48:31;;;;;;;29.38;13.90;;;1.10;99.90;;;;;;5034100;28;20384;-80
2022/01/11 02:50:57;;;;;;;34.15;13.55;;;1.10;99.90;;;;;;5033859;28;20388;-80
2022/01/11 02:53:23;;;;;;;30.77;13.27;;;1.20;99.90;;;;;;5038274;28;20021;-80
2022/01/11 02:55:48;;;;;;;31.05;13.70;;;1.30;99.90;;;;;;5053933;28;20021;-81
2022/01/11 02:58:14;;;;;;;31.90;14.48;;;1.20;99.90;;;;;;5054286;28;20021;-81
2022/01/11 03:00:41;;;;;;;23.42;12.98;;;1.20;99.90;;;;;;5054578;28;20020;-80
2022/01/11 03:03:10;;;;;;;31.30;13.23;;;1.30;99.90;;;;;;5054026;28;20021;-80
2022/01/11 03:05:36;;;;;;;31.77;14.15;;;1.20;99.90;;;;;;5053798;28;20055;-80
2022/01/11 03:08:02;;;;;;;28.15;13.30;;;1.20;99.90;;;;;;5053556;28;20029;-81
2022/01/11 03:10:32;;;;;;;31.55;13.23;;;1.10;99.90;;;;;;5054599;28;20048;-81
2022/01/11 03:13:05;;;;;;;28.05;12.43;;;1.20;99.90;;;;;;5054291;28;20600;-80
2022/01/11 03:15:32;;;;;;;29.25;13.68;;;1.10;99.90;;;;;;5054314;28;20025;-80
2022/01/11 03:17:57;;;;;;;34.97;14.05;;;1.20;99.90;;;;;;5053696;28;20090;-81
2022/01/11 03:20:23;;;;;;;29.88;14.35;;;1.10;99.90;;;;;;5058012;28;20107;-80
2022/01/11 03:22:49;;;;;;;28.65;13.30;;;1.20;99.90;;;;;;5057458;28;20021;-81
2022/01/11 03:25:16;;;;;;;35.35;13.88;;;1.20;99.90;;;;;;5058023;28;20480;-80
2022/01/11 03:27:42;;;;;;;31.65;13.88;;;1.20;99.90;;;;;;5057853;28;20071;-81
2022/01/11 03:30:09;;;;;;;24.70;12.77;;;1.20;99.90;;;;;;5056166;28;20029;-81
2022/01/11 03:32:34;;;;;;;31.10;13.60;;;0.90;99.90;;;;;;5056115;28;20071;-81
2022/01/11 03:35:00;;;;;;;30.02;13.73;;;1.10;99.90;;;;;;5057509;28;20432;-80
2022/01/11 03:37:26;;;;;;;29.45;13.88;;;1.20;99.90;;;;;;5057643;28;20056;-80
2022/01/11 03:39:51;;;;;;;28.42;13.60;;;1.00;99.90;;;;;;5057698;28;20032;-81
2022/01/11 03:42:17;;;;;;;30.52;12.57;;;1.10;99.90;;;;;;5057300;28;20024;-81
2022/01/11 03:44:43;;;;;;;27.58;12.27;;;1.00;99.90;;;;;;5055973;28;20520;-81
2022/01/11 03:47:08;;;;;;;30.60;12.73;;;1.10;99.90;;;;;;5056827;28;20036;-81
2022/01/11 03:49:34;;;;;;;30.05;13.48;;;1.00;99.90;;;;;;5055471;28;20477;-81
2022/01/11 03:51:59;;;;;;;29.20;14.23;;;0.90;99.90;;;;;;5056986;28;20079;-81
2022/01/11 03:54:42;;;;;;;27.52;13.25;;;1.00;99.90;;;;;;5056860;28;20036;-80
2022/01/11 03:57:07;;;;;;;36.30;13.35;;;1.10;99.90;;;;;;5057078;28;20354;-80
2022/01/11 03:59:33;;;;;;;35.97;15.32;;;0.90;99.90;;;;;;5057126;28;20027;-81
2022/01/11 04:01:59;;;;;;;30.63;13.50;;;0.90;99.90;;;;;;5056659;28;20739;-80
2022/01/11 04:04:26;;;;;;;28.88;13.60;;;1.00;99.90;;;;;;5056623;28;20033;-81
2022/01/11 04:06:52;;;;;;;31.88;14.63;;;1.10;99.90;;;;;;5056634;28;20115;-81
2022/01/11 04:09:18;;;;;;;34.15;13.70;;;1.00;99.90;;;;;;5056653;28;20068;-81
2022/01/11 04:11:43;;;;;;;53.08;16.38;;;1.10;99.90;;;;;;5056884;28;20119;-81
2022/01/11 04:14:09;;;;;;;38.00;15.93;;;1.00;99.90;;;;;;5056551;28;20501;-80
2022/01/11 04:16:34;;;;;;;92.85;16.85;;;1.00;99.90;;;;;;5056420;28;20028;-81
2022/01/11 04:19:00;;;;;;;33.58;14.25;;;1.10;99.90;;;;;;5056631;28;20104;-80
2022/01/11 04:21:25;;;;;;;35.10;15.82;;;1.10;99.90;;;;;;5056208;28;20067;-81
2022/01/11 04:23:53;;;;;;;36.08;14.88;;;1.00;99.90;;;;;;5056134;28;20033;-81
2022/01/11 04:26:18;;;;;;;36.35;14.27;;;1.00;99.90;;;;;;5056465;28;20028;-80
2022/01/11 04:28:44;;;;;;;33.00;13.63;;;1.00;99.90;;;;;;5055863;28;20037;-81
2022/01/11 04:31:09;;;;;;;38.30;14.60;;;1.10;99.90;;;;;;5056056;28;20036;-81
2022/01/11 04:33:35;;;;;;;36.00;14.45;;;1.10;99.90;;;;;;5054858;28;20067;-81
2022/01/11 04:36:02;;;;;;;37.53;14.38;;;1.20;99.90;;;;;;5055014;28;20049;-81
2022/01/11 04:38:29;;;;;;;33.80;13.88;;;1.20;99.90;;;;;;5056088;28;20032;-80
2022/01/11 04:40:56;;;;;;;34.97;13.80;;;1.20;99.90;;;;;;5055782;28;20415;-81
2022/01/11 04:43:22;;;;;;;32.92;14.07;;;1.10;99.90;;;;;;5055646;28;20102;-81
2022/01/11 04:45:48;;;;;;;40.85;15.25;;;1.20;99.90;;;;;;5055605;28;20083;-81
2022/01/11 04:48:14;;;;;;;40.90;15.38;;;1.30;99.90;;;;;;5055303;28;20032;-81
2022/01/11 04:50:40;;;;;;;41.05;16.45;;;1.10;99.90;;;;;;5055393;28;20052;-81
2022/01/11 04:53:06;;;;;;;38.70;14.98;;;1.10;99.90;;;;;;5055331;28;20396;-81
2022/01/11 04:55:32;;;;;;;42.22;14.98;;;1.10;99.90;;;;;;5055615;28;20079;-80
2022/01/11 04:57:58;;;;;;;38.72;14.82;;;1.30;99.90;;;;;;5055873;28;20021;-80
2022/01/11 05:00:24;;;;;;;36.55;14.70;;;1.00;99.90;;;;;;5055532;28;20029;-81
2022/01/11 05:02:50;;;;;;;30.40;13.65;;;1.20;99.90;;;;;;5055243;28;20048;-81
2022/01/11 05:05:16;;;;;;;38.50;14.77;;;1.00;99.90;;;;;;5055197;28;20064;-81
2022/01/11 05:07:46;;;;;;;37.25;14.38;;;1.20;99.90;;;;;;5055225;28;20021;-82
2022/01/11 05:10:12;;;;;;;32.45;14.18;;;1.20;99.90;;;;;;5055008;28;20148;-81
2022/01/11 05:12:38;;;;;;;39.88;15.10;;;1.20;99.90;;;;;;5055041;28;20044;-81
2022/01/11 05:15:09;;;;;;;41.63;14.48;;;1.10;99.90;;;;;;5055050;28;20060;-82
2022/01/11 05:17:36;;;;;;;35.03;14.27;;;1.20;99.90;;;;;;5054899;28;20663;-81
2022/01/11 05:20:03;;;;;;;60.22;16.85;;;1.20;99.90;;;;;;5054982;28;20021;-81
2022/01/11 05:22:52;;;;;;;34.95;12.73;;;1.40;99.90;;;;;;5054948;28;20029;-81
2022/01/11 05:25:18;;;;;;;35.05;14.73;;;1.40;99.90;;;;;;5054847;28;20485;-81
2022/01/11 05:27:44;;;;;;;37.33;15.10;;;1.40;99.90;;;;;;5055037;28;20094;-81
2022/01/11 05:30:10;;;;;;;32.47;14.82;;;1.20;99.90;;;;;;5054652;28;20401;-81
2022/01/11 05:32:36;;;;;;;39.65;14.75;;;1.40;99.90;;;;;;5054524;28;20032;-81
2022/01/11 05:35:05;;;;;;;40.72;14.20;;;1.20;99.90;;;;;;5054554;28;20021;-81
2022/01/11 05:38:19;;;;;;;38.60;14.55;;;1.40;99.90;;;;;;5054388;28;20500;-81
2022/01/11 05:40:45;;;;;;;35.65;13.40;;;1.50;99.90;;;;;;5053903;28;20086;-81
2022/01/11 05:43:12;;;;;;;38.95;15.00;;;1.30;99.90;;;;;;5054347;28;20017;-81
2022/01/11 05:45:38;;;;;;;36.28;14.07;;;1.40;99.90;;;;;;5054599;28;20025;-81
2022/01/11 05:48:45;;;;;;;39.80;15.02;;;1.50;99.90;;;;;;5054490;28;20776;-81
2022/01/11 05:51:12;;;;;;;36.30;14.48;;;1.50;99.90;;;;;;5054372;28;20036;-81
2022/01/11 05:53:37;;;;;;;39.83;15.23;;;1.40;99.90;;;;;;5054219;28;20048;-81
2022/01/11 05:56:03;;;;;;;42.17;14.82;;;1.50;99.90;;;;;;5054173;28;20052;-81
2022/01/11 05:58:29;;;;;;;45.60;14.82;;;1.50;99.90;;;;;;5054126;28;20052;-81
2022/01/11 06:00:54;;;;;;;46.58;16.40;;;1.30;99.90;;;;;;5054128;28;20057;-81
2022/01/11 06:03:20;;;;;;;44.00;16.40;;;1.30;99.90;;;;;;5054270;28;20021;-81
2022/01/11 06:05:46;;;;;;;39.97;15.63;;;1.60;99.90;;;;;;5054065;28;20057;-81
2022/01/11 06:08:16;;;;;;;44.95;16.25;;;1.40;99.90;;;;;;5052687;28;20396;-81
2022/01/11 06:10:45;;;;;;;44.90;16.17;;;1.60;99.90;;;;;;5054101;28;20052;-81
2022/01/11 06:13:11;;;;;;;36.17;13.13;;;1.60;99.90;;;;;;5054055;28;20111;-81
2022/01/11 06:15:38;;;;;;;48.63;16.73;;;1.70;99.90;;;;;;5054040;28;20021;-81
2022/01/11 06:18:05;;;;;;;40.67;14.18;;;1.70;99.90;;;;;;5053942;28;20044;-81
2022/01/11 06:20:31;;;;;;;54.05;16.55;;;1.70;99.90;;;;;;5053982;28;20028;-81
2022/01/11 06:22:57;;;;;;;46.20;16.30;;;1.80;99.90;;;;;;5053705;28;20025;-80
2022/01/11 06:28:44;;;;;;;51.35;16.35;;;1.80;99.90;;;;;;5033905;28;20020;-81
2022/01/11 06:31:53;;;;;;;49.92;16.23;;;1.60;99.90;;;;;;5033911;28;20033;-81
2022/01/11 06:34:18;;;;;;;52.67;15.15;;;1.60;99.90;;;;;;5033986;28;20100;-81
2022/01/11 06:36:43;;;;;;;46.70;15.57;;;1.60;99.90;;;;;;5037489;28;20092;-80
2022/01/11 06:39:09;;;;;;;46.97;15.38;;;1.80;99.90;;;;;;5053693;28;20021;-81
2022/01/11 06:41:35;;;;;;;47.58;16.48;;;1.80;99.90;;;;;;5053739;28;20486;-81
2022/01/11 06:44:01;;;;;;;44.85;15.52;;;1.90;99.90;;;;;;5053433;28;20467;-81
2022/01/11 06:46:28;;;;;;;45.83;16.20;;;1.90;99.90;;;;;;5053450;28;20031;-81
2022/01/11 06:48:54;;;;;;;49.70;17.02;;;1.70;99.90;;;;;;5053711;28;20027;-81
2022/01/11 06:51:20;;;;;;;52.22;17.30;;;1.90;99.90;;;;;;5053443;28;20092;-80
2022/01/11 06:53:46;;;;;;;47.00;15.88;;;1.90;99.90;;;;;;5053433;28;20029;-81
2022/01/11 06:56:12;;;;;;;42.35;15.43;;;1.80;99.90;;;;;;5053344;28;20060;-81
2022/01/11 06:58:38;;;;;;;43.80;15.63;;;1.80;99.90;;;;;;5053487;28;20044;-80
2022/01/11 07:01:04;;;;;;;49.80;17.30;;;1.80;99.90;;;;;;5053533;28;20025;-80
2022/01/11 07:03:30;;;;;;;54.83;18.27;;;1.80;99.90;;;;;;5053144;28;20076;-81
2022/01/11 07:05:56;;;;;;;44.33;16.08;;;1.80;99.90;;;;;;5053252;28;20437;-81
2022/01/11 07:08:22;;;;;;;47.63;16.55;;;1.90;99.90;;;;;;5053262;28;20032;-81
2022/01/11 07:10:47;;;;;;;50.78;18.05;;;1.70;99.90;;;;;;5053836;28;20041;-81
2022/01/11 07:13:13;;;;;;;46.22;17.13;;;1.90;99.90;;;;;;5053399;28;20092;-81
2022/01/11 07:15:38;;;;;;;47.20;15.60;;;2.00;99.90;;;;;;5038896;28;20366;-81
2022/01/11 07:18:09;;;;;;;44.35;16.00;;;1.80;99.90;;;;;;5032123;28;20017;-81
2022/01/11 07:20:35;;;;;;;43.45;16.63;;;1.90;99.90;;;;;;5033694;28;20100;-81
2022/01/11 07:23:00;;;;;;;52.22;17.33;;;1.80;99.90;;;;;;5031951;28;20029;-81
2022/01/11 07:25:30;;;;;;;39.67;14.70;;;1.90;99.90;;;;;;5031827;28;20041;-81
2022/01/11 07:27:56;;;;;;;45.30;17.10;;;2.00;99.90;;;;;;5033523;28;20022;-80
2022/01/11 07:30:21;;;;;;;39.78;15.98;;;1.90;99.90;;;;;;5031783;28;20382;-81
2022/01/11 07:32:47;;;;;;;48.03;16.42;;;1.80;99.90;;;;;;5033140;28;20123;-81
2022/01/11 07:35:12;;;;;;;49.63;16.48;;;1.90;99.90;;;;;;5033224;28;20025;-81
2022/01/11 07:37:38;;;;;;;43.70;16.73;;;1.80;99.90;;;;;;5033186;28;20087;-81
2022/01/11 07:40:04;;;;;;;45.88;16.98;;;1.80;99.90;;;;;;5033182;28;20076;-81
2022/01/11 07:42:30;;;;;;;47.30;17.60;;;2.00;99.90;;;;;;5033488;28;20083;-81
2022/01/11 07:44:55;;;;;;;39.03;14.57;;;1.90;99.90;;;;;;5034350;28;21610;-81
2022/01/11 07:47:21;;;;;;;47.58;17.30;;;2.00;99.90;;;;;;5051728;28;20096;-81
2022/01/11 07:49:47;;;;;;;47.80;16.08;;;2.10;99.90;;;;;;5052780;28;20025;-81
2022/01/11 07:52:13;;;;;;;48.17;18.15;;;2.00;99.90;;;;;;5052768;28;20071;-81
2022/01/11 07:54:39;;;;;;;45.13;15.40;;;1.90;99.90;;;;;;5052785;28;20756;-81
2022/01/11 07:57:05;;;;;;;43.83;16.55;;;1.90;99.90;;;;;;5053079;28;20044;-81
2022/01/11 07:59:31;;;;;;;49.47;17.50;;;1.90;99.90;;;;;;5053590;28;20032;-81
2022/01/11 08:01:57;;;;;;;44.25;16.77;;;1.90;99.90;;;;;;5052664;28;20064;-81
2022/01/11 08:04:23;;;;;;;42.20;16.63;;;2.00;99.90;;;;;;5045406;28;20048;-81
2022/01/11 08:06:49;;;;;;;51.78;17.35;;;2.10;99.90;;;;;;5037159;28;20021;-81
2022/01/11 08:09:15;;;;;;;49.38;17.20;;;2.00;99.90;;;;;;5038037;28;20045;-81
2022/01/11 08:11:41;;;;;;;44.47;15.35;;;1.90;99.90;;;;;;5036776;28;20021;-81
2022/01/11 08:14:07;;;;;;;42.05;16.35;;;2.10;99.90;;;;;;5053403;28;20044;-81
2022/01/11 08:16:32;;;;;;;38.60;16.58;;;2.10;99.90;;;;;;5056257;28;20021;-81
2022/01/11 08:18:58;;;;;;;44.38;17.55;;;2.00;99.90;;;;;;5055872;28;20021;-82
2022/01/11 08:21:24;;;;;;;48.53;17.15;;;2.20;99.90;;;;;;5044345;28;20013;-81
2022/01/11 08:23:49;;;;;;;42.40;15.40;;;2.10;99.90;;;;;;5056307;28;20531;-81
2022/01/11 08:26:15;;;;;;;40.55;15.38;;;1.90;99.90;;;;;;5056298;28;20108;-82
2022/01/11 08:28:43;;;;;;;37.38;14.80;;;2.10;99.90;;;;;;5038715;28;20083;-81
2022/01/11 08:31:08;;;;;;;45.80;16.00;;;1.90;99.90;;;;;;5036205;28;20022;-81
2022/01/11 08:33:34;;;;;;;44.53;16.08;;;2.00;99.90;;;;;;5035882;28;20452;-81
2022/01/11 08:35:59;;;;;;;44.45;16.45;;;2.10;99.90;;;;;;5036452;28;20029;-83
2022/01/11 08:38:25;;;;;;;44.22;15.77;;;2.10;99.90;;;;;;5050170;28;20025;-81
2022/01/11 08:40:51;;;;;;;39.15;14.90;;;2.20;99.90;;;;;;5055853;28;20138;-82
2022/01/11 08:43:16;;;;;;;44.63;15.52;;;2.10;99.90;;;;;;5055787;28;20036;-82
2022/01/11 08:45:42;;;;;;;39.15;15.10;;;1.90;99.90;;;;;;5055761;28;20036;-82
2022/01/11 08:48:07;;;;;;;43.58;15.15;;;2.00;99.90;;;;;;5055939;28;20086;-81
2022/01/11 08:50:33;;;;;;;46.75;15.98;;;2.10;99.90;;;;;;5055734;28;20028;-82
2022/01/11 08:52:59;;;;;;;48.88;15.48;;;2.00;99.90;;;;;;5055748;28;20384;-81
2022/01/11 08:55:24;;;;;;;41.33;15.75;;;2.20;99.90;;;;;;5055755;28;20028;-82
2022/01/11 08:57:50;;;;;;;41.83;16.40;;;2.20;99.90;;;;;;5055655;28;20025;-81
2022/01/11 09:00:18;;;;;;;43.25;17.30;;;2.00;99.90;;;;;;5055537;28;20021;-82
2022/01/11 09:02:48;;;;;;;50.88;17.77;;;2.30;99.90;;;;;;5055821;28;20020;-82
2022/01/11 09:05:14;;;;;;;46.85;18.40;;;2.00;99.90;;;;;;5055460;28;20025;-81
2022/01/11 09:07:41;;;;;;;49.78;20.27;;;2.30;99.90;;;;;;5055281;28;20032;-81
2022/01/11 09:10:07;;;;;;;50.60;18.45;;;2.30;99.90;;;;;;5056145;28;20504;-81
2022/01/11 09:12:34;;;;;;;49.55;17.08;;;2.30;99.90;;;;;;5055871;28;20028;-82
2022/01/11 09:15:00;;;;;;;45.25;15.93;;;2.50;99.90;;;;;;5055131;28;20021;-82
2022/01/11 09:17:26;;;;;;;51.13;18.00;;;2.20;99.90;;;;;;5055439;28;20159;-81
2022/01/11 09:19:51;;;;;;;46.80;16.88;;;2.40;99.90;;;;;;5055343;28;20488;-81
2022/01/11 09:22:17;;;;;;;47.90;16.08;;;2.40;99.90;;;;;;5055257;28;20431;-81
2022/01/11 09:24:43;;;;;;;45.28;17.85;;;2.30;99.90;;;;;;5055380;28;20413;-81
2022/01/11 09:27:09;;;;;;;44.83;16.75;;;2.40;99.90;;;;;;5055192;28;20025;-82
2022/01/11 09:29:43;;;;;;;35.70;13.35;;;2.50;99.90;;;;;;5054899;28;20056;-81
2022/01/11 09:32:09;;;;;;;46.65;16.58;;;2.60;99.90;;;;;;5054963;28;20021;-81
2022/01/11 09:34:38;;;;;;;43.38;16.65;;;2.80;99.90;;;;;;5054430;28;20037;-82
2022/01/11 09:37:05;;;;;;;52.42;16.60;;;2.70;99.90;;;;;;5035176;28;20057;-81
2022/01/11 09:39:30;;;;;;;51.15;17.33;;;3.20;99.90;;;;;;5039250;28;20017;-81
2022/01/11 09:41:58;;;;;;;46.22;17.30;;;3.20;99.90;;;;;;5053406;28;20443;-81
2022/01/11 09:44:25;;;;;;;44.13;17.75;;;3.10;99.90;;;;;;5054523;28;20079;-82
2022/01/11 09:46:51;;;;;;;41.17;17.20;;;3.00;99.90;;;;;;5054214;28;20104;-82
2022/01/11 09:49:17;;;;;;;45.67;16.45;;;3.00;99.90;;;;;;5054411;28;20029;-81
2022/01/11 09:51:44;;;;;;;41.95;17.60;;;3.10;99.90;;;;;;5054415;28;20538;-81
2022/01/11 09:54:09;;;;;;;47.10;16.55;;;2.90;99.90;;;;;;5045633;28;20037;-81
2022/01/11 09:56:37;;;;;;;39.65;16.27;;;2.90;99.90;;;;;;5034741;28;20082;-81
2022/01/11 09:59:03;;;;;;;46.85;17.85;;;3.20;99.90;;;;;;5034672;28;20025;-80
2022/01/11 10:01:29;;;;;;;45.30;17.40;;;3.00;99.90;;;;;;5034525;28;20033;-80
2022/01/11 10:04:06;;;;;;;42.85;17.77;;;3.00;99.90;;;;;;5032961;28;20022;-80
2022/01/11 10:06:39;;;;;;;42.22;16.70;;;3.30;99.90;;;;;;5032920;28;20060;-80
2022/01/11 10:09:21;;;;;;;48.45;18.85;;;3.10;99.90;;;;;;5032656;28;20088;-80
2022/01/11 10:11:55;;;;;;;45.08;17.42;;;3.30;99.90;;;;;;5034413;28;20033;-80
2022/01/11 10:14:31;;;;;;;38.58;17.48;;;3.20;99.90;;;;;;5034092;28;20029;-80
2022/01/11 10:17:18;;;;;;;48.33;17.17;;;3.30;99.90;;;;;;5034213;28;20031;-80
2022/01/11 10:19:59;;;;;;;38.13;15.15;;;3.40;99.90;;;;;;5033981;28;20028;-80
2022/01/11 10:22:24;;;;;;;47.95;17.13;;;3.60;99.90;;;;;;5034293;28;20028;-80
2022/01/11 10:24:54;;;;;;;51.28;17.55;;;3.40;99.90;;;;;;5033686;28;20029;-80
2022/01/11 10:27:22;;;;;;;36.85;15.95;;;3.50;99.90;;;;;;5033474;28;20108;-80
2022/01/11 10:29:56;;;;;;;43.70;15.60;;;3.60;99.90;;;;;;5033791;28;20021;-80
2022/01/11 10:32:35;;;;;;;48.47;17.60;;;3.90;99.90;;;;;;5033719;28;20022;-80
2022/01/11 10:35:18;;;;;;;41.10;16.42;;;3.70;99.90;;;;;;5033612;28;20029;-80
2022/01/11 10:37:46;;;;;;;46.28;16.50;;;4.00;99.90;;;;;;5034551;28;20531;-81
2022/01/11 10:40:32;;;;;;;45.55;16.15;;;4.10;99.90;;;;;;5045894;28;20025;-81
2022/01/11 10:43:04;;;;;;;36.58;16.08;;;3.90;99.90;;;;;;5040753;28;20025;-80
2022/01/11 10:45:58;;;;;;;40.58;15.75;;;4.30;99.90;;;;;;5052234;28;20029;-81
2022/01/11 10:48:27;;;;;;;44.17;15.80;;;4.40;99.90;;;;;;5050185;28;20205;-81
2022/01/11 10:50:56;;;;;;;39.20;14.98;;;4.20;99.90;;;;;;5053648;28;20108;-81
2022/01/11 10:53:39;;;;;;;39.35;13.55;;;4.40;99.90;;;;;;5053346;28;20029;-81
2022/01/11 10:56:06;;;;;;;38.33;15.52;;;4.40;99.90;;;;;;5053476;28;20025;-81
2022/01/11 10:58:36;;;;;;;41.58;16.33;;;4.50;99.90;;;;;;5053250;28;20147;-81
2022/01/11 11:01:04;;;;;;;36.20;15.70;;;4.30;99.90;;;;;;5053260;28;20465;-81
2022/01/11 11:04:01;;;;;;;37.13;14.68;;;4.40;99.90;;;;;;5053420;28;20036;-81
2022/01/11 11:06:27;;;;;;;40.88;15.90;;;4.50;99.90;;;;;;5053897;28;20033;-81
2022/01/11 11:08:52;;;;;;;38.05;15.10;;;4.50;99.90;;;;;;5052728;28;20033;-81
2022/01/11 11:11:21;;;;;;;37.50;15.23;;;4.40;99.90;;;;;;5053424;28;20037;-81
2022/01/11 11:13:51;;;;;;;38.63;14.73;;;4.30;99.90;;;;;;5049458;28;20024;-82
2022/01/11 11:16:25;;;;;;;39.47;14.23;;;4.10;99.90;;;;;;5051640;28;20032;-81
2022/01/11 11:18:53;;;;;;;36.60;15.38;;;4.50;99.90;;;;;;5045656;28;20029;-81
2022/01/11 11:21:22;;;;;;;37.35;14.75;;;4.20;99.90;;;;;;5049259;28;20025;-81
2022/01/11 11:23:50;;;;;;;32.05;13.00;;;4.40;99.90;;;;;;5052635;28;20029;-81
2022/01/11 11:26:17;;;;;;;33.38;13.75;;;4.30;99.90;;;;;;5044566;28;20451;-81
2022/01/11 11:28:42;;;;;;;34.35;13.43;;;4.40;99.90;;;;;;5050404;28;20021;-81
2022/01/11 11:31:08;;;;;;;34.42;13.98;;;4.30;99.90;;;;;;5037658;28;20366;-81
2022/01/11 11:33:37;;;;;;;35.53;13.63;;;4.20;99.90;;;;;;5041717;28;20030;-81
2022/01/11 11:36:40;;;;;;;31.48;13.95;;;4.30;99.90;;;;;;5041556;28;20100;-81
2022/01/11 11:39:16;;;;;;;30.42;12.63;;;4.40;99.90;;;;;;5044104;28;20022;-81
2022/01/11 11:41:46;;;;;;;36.10;14.25;;;4.40;99.90;;;;;;5036997;28;20377;-81
2022/01/11 11:44:14;;;;;;;32.67;13.55;;;4.40;99.90;;;;;;5036836;28;20116;-81
2022/01/11 11:47:07;;;;;;;38.92;14.48;;;4.10;99.90;;;;;;5036564;28;20034;-81
2022/01/11 11:49:51;;;;;;;30.55;12.43;;;4.30;99.90;;;;;;5036706;28;20033;-81
2022/01/11 11:52:26;;;;;;;34.22;13.07;;;4.20;99.90;;;;;;5036543;28;20030;-81
2022/01/11 11:55:01;;;;;;;31.13;12.20;;;4.40;99.90;;;;;;5036828;28;20105;-81
2022/01/11 11:57:31;;;;;;;33.72;13.40;;;4.20;99.90;;;;;;5035411;28;20033;-81
2022/01/11 11:59:59;;;;;;;31.48;13.88;;;4.20;99.90;;;;;;5036921;28;20028;-81
2022/01/11 12:02:40;;;;;;;34.78;13.35;;;4.30;99.90;;;;;;5035741;28;20053;-81
2022/01/11 12:05:10;;;;;;;31.38;12.88;;;4.50;99.90;;;;;;5036797;28;20103;-82
2022/01/11 12:07:43;;;;;;;34.42;13.40;;;4.60;99.90;;;;;;5046409;28;20040;-82
2022/01/11 12:10:15;;;;;;;34.03;13.30;;;4.40;99.90;;;;;;5054310;28;20083;-82
2022/01/11 12:12:49;;;;;;;36.30;13.52;;;4.40;99.90;;;;;;5056326;28;20036;-82
2022/01/11 12:15:35;;;;;;;34.53;13.80;;;4.60;99.90;;;;;;5062081;28;20329;-85
2022/01/11 12:18:05;;;;;;;31.95;12.52;;;4.60;99.90;;;;;;5059481;28;20143;-82
2022/01/11 12:20:43;;;;;;;31.85;13.32;;;4.60;99.90;;;;;;5050862;28;20021;-82
2022/01/11 12:23:11;;;;;;;33.38;13.07;;;4.70;99.90;;;;;;5036302;28;20385;-82
2022/01/11 12:25:43;;;;;;;35.55;12.70;;;4.70;99.90;;;;;;5049012;28;20117;-83
2022/01/11 12:28:20;;;;;;;30.17;13.13;;;4.80;99.90;;;;;;5055941;28;20029;-81
2022/01/11 12:30:46;;;;;;;28.85;11.93;;;4.80;99.90;;;;;;5055814;28;20381;-81
2022/01/11 12:33:16;;;;;;;30.70;12.65;;;4.70;99.90;;;;;;5055519;28;20052;-81
2022/01/11 12:36:04;;;;;;;32.90;13.85;;;4.80;99.90;;;;;;5056385;28;20111;-81
2022/01/11 12:38:36;;;;;;;31.38;12.20;;;4.80;99.90;;;;;;5050115;28;20029;-80
2022/01/11 12:41:26;;;;;;;28.40;12.95;;;4.90;99.90;;;;;;5037145;28;20017;-80
2022/01/11 12:44:13;;;;;;;;;;;4.90;99.90;;;;;;5055858;28;20024;-80
2022/01/11 12:47:03;;;;;;;34.50;13.90;;;4.90;99.90;;;;;;5055528;28;20042;-80
2022/01/11 12:49:30;;;;;;;28.47;12.80;;;4.90;99.90;;;;;;5055255;28;20025;-81
2022/01/11 12:52:09;;;;;;;30.27;13.23;;;4.80;99.90;;;;;;5037161;28;20316;-80
2022/01/11 12:54:49;;;;;;;32.80;13.15;;;4.90;83.30;;;;;;5035935;28;20465;-80
2022/01/11 12:57:23;;;;;;;29.55;13.35;;;4.90;99.90;;;;;;5035983;28;20033;-81
2022/01/11 12:59:54;;;;;;;31.27;12.65;;;5.00;99.90;;;;;;5035448;28;20026;-81